sensor_id;sensor_type;location;lat;lon;timestamp;pressure;altitude;pressure_sealevel;temperature;humidity
57885;BME280;43703;51.060;-0.086;2023-03-26T17:34:54;99856.74;;;7.57;57.57
57885;BME280;43703;51.060;-0.086;2023-03-26T17:44:39;99889.17;;;7.58;55.66
57885;BME280;43703;51.060;-0.086;2023-03-26T17:46:51;99898.56;;;6.92;55.22
57885;BME280;43703;51.060;-0.086;2023-03-26T17:49:18;99903.70;;;7.35;56.39
57885;BME280;43703;51.060;-0.086;2023-03-26T17:51:46;99912.15;;;7.70;55.50
57885;BME280;43703;51.060;-0.086;2023-03-26T17:54:07;99922.29;;;7.05;56.00
57885;BME280;43703;51.060;-0.086;2023-03-26T17:56:31;99923.68;;;7.45;55.52
57885;BME280;43703;51.060;-0.086;2023-03-26T17:58:57;99933.34;;;7.64;54.82
57885;BME280;43703;51.060;-0.086;2023-03-26T18:01:25;99940.54;;;7.30;55.34
57885;BME280;43703;51.060;-0.086;2023-03-26T18:03:48;99951.79;;;6.94;53.93
57885;BME280;43703;51.060;-0.086;2023-03-26T18:06:15;99957.68;;;7.55;55.53
57885;BME280;43703;51.060;-0.086;2023-03-26T18:08:44;99960.91;;;7.56;56.90
57885;BME280;43703;51.060;-0.086;2023-03-26T18:13:42;99976.01;;;7.47;56.83
57885;BME280;43703;51.060;-0.086;2023-03-26T18:16:00;99981.93;;;6.62;54.60
57885;BME280;43703;51.060;-0.086;2023-03-26T18:18:19;99987.07;;;7.12;56.09
57885;BME280;43703;51.060;-0.086;2023-03-26T18:20:42;99995.99;;;6.29;54.15
57885;BME280;43703;51.060;-0.086;2023-03-26T18:23:09;99998.60;;;6.24;53.72
57885;BME280;43703;51.060;-0.086;2023-03-26T18:25:32;99998.46;;;6.38;54.17
57885;BME280;43703;51.060;-0.086;2023-03-26T18:27:58;100002.14;;;6.65;55.62
57885;BME280;43703;51.060;-0.086;2023-03-26T18:30:23;100007.39;;;6.99;55.06
57885;BME280;43703;51.060;-0.086;2023-03-26T18:32:51;100009.68;;;7.30;57.91
57885;BME280;43703;51.060;-0.086;2023-03-26T18:35:15;100017.99;;;6.99;54.91
57885;BME280;43703;51.060;-0.086;2023-03-26T18:37:37;100013.84;;;7.09;55.88
57885;BME280;43703;51.060;-0.086;2023-03-26T18:40:08;100014.84;;;6.44;54.32
57885;BME280;43703;51.060;-0.086;2023-03-26T18:42:28;100010.33;;;7.17;57.66
57885;BME280;43703;51.060;-0.086;2023-03-26T18:44:53;100019.48;;;6.89;57.58
57885;BME280;43703;51.060;-0.086;2023-03-26T18:47:18;100031.23;;;6.51;56.65
57885;BME280;43703;51.060;-0.086;2023-03-26T18:49:43;100039.86;;;6.32;55.97
57885;BME280;43703;51.060;-0.086;2023-03-26T18:52:08;100045.98;;;6.95;57.73
57885;BME280;43703;51.060;-0.086;2023-03-26T18:54:34;100050.92;;;5.92;56.37
57885;BME280;43703;51.060;-0.086;2023-03-26T18:57:06;100054.70;;;6.11;58.74
57885;BME280;43703;51.060;-0.086;2023-03-26T18:59:26;100058.66;;;6.62;58.41
57885;BME280;43703;51.060;-0.086;2023-03-26T19:01:48;100061.46;;;6.03;57.79
57885;BME280;43703;51.060;-0.086;2023-03-26T19:04:15;100066.25;;;6.68;59.71
57885;BME280;43703;51.060;-0.086;2023-03-26T19:06:40;100072.62;;;5.78;56.41
57885;BME280;43703;51.060;-0.086;2023-03-26T19:09:05;100080.98;;;6.50;59.70
57885;BME280;43703;51.060;-0.086;2023-03-26T19:11:30;100085.65;;;6.46;60.12
57885;BME280;43703;51.060;-0.086;2023-03-26T19:14:00;100088.98;;;6.26;59.81
57885;BME280;43703;51.060;-0.086;2023-03-26T19:16:22;100092.91;;;6.15;57.68
57885;BME280;43703;51.060;-0.086;2023-03-26T19:18:46;100098.51;;;6.44;59.86
57885;BME280;43703;51.060;-0.086;2023-03-26T19:21:12;100102.37;;;6.62;60.25
57885;BME280;43703;51.060;-0.086;2023-03-26T19:23:38;100107.84;;;6.15;59.41
57885;BME280;43703;51.060;-0.086;2023-03-26T19:26:02;100107.54;;;6.73;61.97
57885;BME280;43703;51.060;-0.086;2023-03-26T19:28:28;100110.37;;;6.51;61.32
57885;BME280;43703;51.060;-0.086;2023-03-26T19:30:54;100113.45;;;6.64;61.46
57885;BME280;43703;51.060;-0.086;2023-03-26T19:33:18;100120.74;;;6.37;58.30
57885;BME280;43703;51.060;-0.086;2023-03-26T19:35:42;100122.26;;;6.28;58.58
57885;BME280;43703;51.060;-0.086;2023-03-26T19:38:12;100130.39;;;6.61;58.75
57885;BME280;43703;51.060;-0.086;2023-03-26T19:40:32;100131.17;;;6.29;59.53
57885;BME280;43703;51.060;-0.086;2023-03-26T19:42:57;100134.24;;;6.26;58.81
57885;BME280;43703;51.060;-0.086;2023-03-26T19:45:22;100137.10;;;6.00;57.47
57885;BME280;43703;51.060;-0.086;2023-03-26T19:47:48;100139.80;;;6.17;58.01
57885;BME280;43703;51.060;-0.086;2023-03-26T19:50:20;100146.19;;;6.68;59.99
57885;BME280;43703;51.060;-0.086;2023-03-26T19:52:37;100155.25;;;6.17;56.53
57885;BME280;43703;51.060;-0.086;2023-03-26T19:55:14;100168.23;;;5.83;56.18
57885;BME280;43703;51.060;-0.086;2023-03-26T19:57:28;100173.48;;;7.27;57.62
57885;BME280;43703;51.060;-0.086;2023-03-26T19:59:53;100181.58;;;6.75;59.07
57885;BME280;43703;51.060;-0.086;2023-03-26T20:02:19;100191.58;;;6.22;57.09
57885;BME280;43703;51.060;-0.086;2023-03-26T20:04:43;100194.34;;;6.02;58.43
57885;BME280;43703;51.060;-0.086;2023-03-26T20:07:15;100198.91;;;6.47;58.60
57885;BME280;43703;51.060;-0.086;2023-03-26T20:09:34;100200.60;;;6.43;58.70
57885;BME280;43703;51.060;-0.086;2023-03-26T20:11:59;100206.39;;;6.31;58.41
57885;BME280;43703;51.060;-0.086;2023-03-26T20:14:24;100213.62;;;6.10;58.91
57885;BME280;43703;51.060;-0.086;2023-03-26T20:16:50;100219.61;;;6.17;58.01
57885;BME280;43703;51.060;-0.086;2023-03-26T20:19:16;100217.41;;;6.20;57.05
57885;BME280;43703;51.060;-0.086;2023-03-26T20:21:41;100223.58;;;6.32;59.10
57885;BME280;43703;51.060;-0.086;2023-03-26T20:24:10;100223.81;;;6.33;58.40
57885;BME280;43703;51.060;-0.086;2023-03-26T20:26:33;100222.65;;;6.63;58.83
57885;BME280;43703;51.060;-0.086;2023-03-26T20:28:56;100224.94;;;6.84;59.88
57885;BME280;43703;51.060;-0.086;2023-03-26T20:31:24;100228.50;;;6.27;58.64
57885;BME280;43703;51.060;-0.086;2023-03-26T20:33:49;100232.46;;;5.35;56.48
57885;BME280;43703;51.060;-0.086;2023-03-26T20:36:12;100234.59;;;6.29;59.03
57885;BME280;43703;51.060;-0.086;2023-03-26T20:38:36;100238.00;;;6.08;58.54
57885;BME280;43703;51.060;-0.086;2023-03-26T20:41:01;100244.07;;;5.97;57.28
57885;BME280;43703;51.060;-0.086;2023-03-26T20:43:26;100247.17;;;5.67;56.05
57885;BME280;43703;51.060;-0.086;2023-03-26T20:45:51;100250.48;;;5.44;58.30
57885;BME280;43703;51.060;-0.086;2023-03-26T20:48:16;100258.45;;;5.98;59.27
57885;BME280;43703;51.060;-0.086;2023-03-26T20:50:41;100264.00;;;5.34;58.22
57885;BME280;43703;51.060;-0.086;2023-03-26T20:53:08;100271.56;;;5.60;60.44
57885;BME280;43703;51.060;-0.086;2023-03-26T20:55:31;100280.45;;;5.56;59.81
57885;BME280;43703;51.060;-0.086;2023-03-26T20:57:57;100279.96;;;5.76;60.45
57885;BME280;43703;51.060;-0.086;2023-03-26T21:00:22;100285.18;;;5.61;60.31
57885;BME280;43703;51.060;-0.086;2023-03-26T21:02:48;100289.01;;;5.69;62.44
57885;BME280;43703;51.060;-0.086;2023-03-26T21:05:12;100296.66;;;6.04;62.12
57885;BME280;43703;51.060;-0.086;2023-03-26T21:07:38;100309.89;;;4.46;59.70
57885;BME280;43703;51.060;-0.086;2023-03-26T21:10:04;100311.92;;;5.29;61.98
57885;BME280;43703;51.060;-0.086;2023-03-26T21:12:30;100317.21;;;5.62;63.06
57885;BME280;43703;51.060;-0.086;2023-03-26T21:14:53;100320.79;;;5.25;61.05
57885;BME280;43703;51.060;-0.086;2023-03-26T21:17:20;100325.64;;;5.55;61.04
57885;BME280;43703;51.060;-0.086;2023-03-26T21:19:44;100334.23;;;5.16;60.03
57885;BME280;43703;51.060;-0.086;2023-03-26T21:22:15;100332.69;;;5.08;60.19
57885;BME280;43703;51.060;-0.086;2023-03-26T21:24:42;100342.26;;;5.17;60.46
57885;BME280;43703;51.060;-0.086;2023-03-26T21:27:04;100344.92;;;5.52;59.98
57885;BME280;43703;51.060;-0.086;2023-03-26T21:29:24;100348.33;;;5.85;60.17
57885;BME280;43703;51.060;-0.086;2023-03-26T21:31:49;100348.82;;;5.94;59.71
57885;BME280;43703;51.060;-0.086;2023-03-26T21:34:14;100351.01;;;5.33;58.39
57885;BME280;43703;51.060;-0.086;2023-03-26T21:36:39;100347.91;;;5.92;60.43
57885;BME280;43703;51.060;-0.086;2023-03-26T21:39:04;100354.02;;;5.94;59.97
57885;BME280;43703;51.060;-0.086;2023-03-26T21:41:34;100361.65;;;5.50;60.32
57885;BME280;43703;51.060;-0.086;2023-03-26T21:43:54;100359.74;;;5.66;57.71
57885;BME280;43703;51.060;-0.086;2023-03-26T21:46:19;100362.57;;;5.76;58.81
57885;BME280;43703;51.060;-0.086;2023-03-26T21:48:44;100365.62;;;5.72;57.75
57885;BME280;43703;51.060;-0.086;2023-03-26T21:51:11;100371.78;;;5.97;59.67
57885;BME280;43703;51.060;-0.086;2023-03-26T21:53:34;100378.93;;;5.45;57.44
57885;BME280;43703;51.060;-0.086;2023-03-26T21:56:06;100380.80;;;5.34;60.30
57885;BME280;43703;51.060;-0.086;2023-03-26T21:58:34;100384.58;;;5.55;59.03
57885;BME280;43703;51.060;-0.086;2023-03-26T22:01:02;100388.12;;;5.65;61.08
57885;BME280;43703;51.060;-0.086;2023-03-26T22:03:20;100395.99;;;5.27;58.28
57885;BME280;43703;51.060;-0.086;2023-03-26T22:05:42;100397.10;;;5.83;61.74
57885;BME280;43703;51.060;-0.086;2023-03-26T22:08:06;100403.25;;;5.27;59.05
57885;BME280;43703;51.060;-0.086;2023-03-26T22:10:30;100412.62;;;5.40;60.68
57885;BME280;43703;51.060;-0.086;2023-03-26T22:12:55;100419.34;;;5.21;59.78
57885;BME280;43703;51.060;-0.086;2023-03-26T22:15:20;100425.42;;;5.36;61.57
57885;BME280;43703;51.060;-0.086;2023-03-26T22:17:46;100427.36;;;5.25;59.68
57885;BME280;43703;51.060;-0.086;2023-03-26T22:20:12;100429.03;;;5.06;57.56
57885;BME280;43703;51.060;-0.086;2023-03-26T22:22:35;100433.53;;;5.59;61.01
57885;BME280;43703;51.060;-0.086;2023-03-26T22:25:00;100438.52;;;5.65;59.49
57885;BME280;43703;51.060;-0.086;2023-03-26T22:27:25;100448.11;;;5.49;58.22
57885;BME280;43703;51.060;-0.086;2023-03-26T22:29:50;100452.92;;;5.28;58.99
57885;BME280;43703;51.060;-0.086;2023-03-26T22:32:15;100455.50;;;5.58;61.16
57885;BME280;43703;51.060;-0.086;2023-03-26T22:34:40;100457.50;;;5.99;61.84
57885;BME280;43703;51.060;-0.086;2023-03-26T22:37:05;100460.20;;;5.54;62.06
57885;BME280;43703;51.060;-0.086;2023-03-26T22:39:31;100464.24;;;5.80;62.38
57885;BME280;43703;51.060;-0.086;2023-03-26T22:41:56;100471.06;;;5.60;59.94
57885;BME280;43703;51.060;-0.086;2023-03-26T22:44:21;100478.35;;;5.57;59.98
57885;BME280;43703;51.060;-0.086;2023-03-26T22:46:47;100480.90;;;5.75;59.20
57885;BME280;43703;51.060;-0.086;2023-03-26T22:49:12;100493.04;;;5.56;60.67
57885;BME280;43703;51.060;-0.086;2023-03-26T22:51:37;100489.66;;;5.97;61.77
57885;BME280;43703;51.060;-0.086;2023-03-26T22:54:02;100493.82;;;5.30;57.60
57885;BME280;43703;51.060;-0.086;2023-03-26T22:56:27;100491.05;;;5.64;61.22
57885;BME280;43703;51.060;-0.086;2023-03-26T22:58:52;100497.22;;;5.92;60.59
57885;BME280;43703;51.060;-0.086;2023-03-26T23:01:19;100500.66;;;5.27;60.55
57885;BME280;43703;51.060;-0.086;2023-03-26T23:03:42;100505.51;;;5.28;59.83
57885;BME280;43703;51.060;-0.086;2023-03-26T23:06:09;100503.97;;;5.87;61.58
57885;BME280;43703;51.060;-0.086;2023-03-26T23:08:35;100502.87;;;6.30;60.17
57885;BME280;43703;51.060;-0.086;2023-03-26T23:10:57;100513.75;;;5.27;56.91
57885;BME280;43703;51.060;-0.086;2023-03-26T23:13:23;100515.07;;;4.93;59.35
57885;BME280;43703;51.060;-0.086;2023-03-26T23:15:48;100514.81;;;5.51;60.64
57885;BME280;43703;51.060;-0.086;2023-03-26T23:18:13;100519.72;;;5.17;58.80
57885;BME280;43703;51.060;-0.086;2023-03-26T23:20:38;100524.23;;;5.37;61.04
57885;BME280;43703;51.060;-0.086;2023-03-26T23:23:03;100527.60;;;5.46;61.99
57885;BME280;43703;51.060;-0.086;2023-03-26T23:25:28;100532.04;;;5.09;62.37
57885;BME280;43703;51.060;-0.086;2023-03-26T23:27:54;100531.39;;;4.63;57.32
57885;BME280;43703;51.060;-0.086;2023-03-26T23:30:18;100533.40;;;5.32;60.49
57885;BME280;43703;51.060;-0.086;2023-03-26T23:32:43;100540.69;;;5.78;61.92
57885;BME280;43703;51.060;-0.086;2023-03-26T23:35:08;100548.64;;;5.47;62.65
57885;BME280;43703;51.060;-0.086;2023-03-26T23:37:33;100552.38;;;5.06;61.95
57885;BME280;43703;51.060;-0.086;2023-03-26T23:39:58;100556.83;;;5.19;62.86
57885;BME280;43703;51.060;-0.086;2023-03-26T23:42:23;100560.67;;;5.67;63.64
57885;BME280;43703;51.060;-0.086;2023-03-26T23:44:48;100565.59;;;5.28;60.10
57885;BME280;43703;51.060;-0.086;2023-03-26T23:47:13;100573.22;;;5.43;61.25
57885;BME280;43703;51.060;-0.086;2023-03-26T23:49:38;100579.76;;;4.78;58.38
57885;BME280;43703;51.060;-0.086;2023-03-26T23:52:03;100578.00;;;4.93;59.62
57885;BME280;43703;51.060;-0.086;2023-03-26T23:54:28;100582.36;;;5.13;60.62
57885;BME280;43703;51.060;-0.086;2023-03-26T23:56:53;100585.05;;;4.90;60.09
57885;BME280;43703;51.060;-0.086;2023-03-26T23:59:18;100590.57;;;5.04;62.03
